This is the latest recevied weather packets stored in our database for station/object eb1ayw-13. If no packets are shown the sender has not sent any weather packets the latest 10 day(s).
| Time | Temp. | Humidity | Pressure | Rain* | Wind** | Luminosity | Snow |
|---|---|---|---|---|---|---|---|
| 1777651257 | 47.78° C | 11% | 1005 hPa | - | - | - | - |
| 1777650657 | 51.67° C | 9% | 1004.1 hPa | - | - | - | - |
| 1777650057 | 53.33° C | 9% | 1003.8 hPa | - | - | - | - |
| 1777649457 | 51.11° C | 10% | 1004.3 hPa | - | - | - | - |
| 1777648857 | 51.67° C | 9% | 1004.5 hPa | - | - | - | - |
| 1777648257 | 51.11° C | 9% | 1004.4 hPa | - | - | - | - |
| 1777647657 | 55.56° C | 8% | 1003.7 hPa | - | - | - | - |
| 1777647057 | 52.22° C | 9% | 1004.3 hPa | - | - | - | - |
| 1777646457 | 51.11° C | 10% | 1004.7 hPa | - | - | - | - |
| 1777645857 | 52.78° C | 10% | 1004.5 hPa | - | - | - | - |
| 1777645257 | 51.67° C | 10% | 1004.9 hPa | - | - | - | - |
| 1777644657 | 46.67° C | 12% | 1006.1 hPa | - | - | - | - |
| 1777644057 | 48.89° C | 11% | 1005.7 hPa | - | - | - | - |
| 1777643457 | 50.56° C | 11% | 1005.5 hPa | - | - | - | - |
| 1777642858 | 50° C | 12% | 1005.6 hPa | - | - | - | - |
| 1777642257 | 55.56° C | 9% | 1004.4 hPa | - | - | - | - |
| 1777641657 | 51.11° C | 11% | 1005.4 hPa | - | - | - | - |
| 1777641057 | 51.11° C | 11% | 1005.3 hPa | - | - | - | - |
| 1777640458 | 52.22° C | 10% | 1005.1 hPa | - | - | - | - |
| 1777639857 | 52.22° C | 10% | 1005.3 hPa | - | - | - | - |
| 1777639258 | 53.89° C | 10% | 1005 hPa | - | - | - | - |
| 1777638657 | 52.78° C | 10% | 1005.2 hPa | - | - | - | - |
| 1777638057 | 46.67° C | 13% | 1006.7 hPa | - | - | - | - |
| 1777637458 | 52.22° C | 11% | 1005.4 hPa | - | - | - | - |
| 1777636857 | 52.78° C | 11% | 1005.4 hPa | - | - | - | - |
* Rain since midnight (hover to see other rain measurements)
** Current wind speed in m/s (hover to see current wind gust speed)